Time;durP1;ratioP1;P1;durP2;ratioP2;P2;SDS_P1;SDS_P2;PMS_P1;PMS_P2;Temp;Humidity;BMP_temperature;BMP_pressure;BME280_temperature;BME280_humidity;BME280_pressure;Samples;Min_cycle;Max_cycle;Signal;HPM_P1;HPM_P2
2022/09/04 00:01:37;;;;;;;7.28;5.97;;;19.50;80.20;;;;;;5133999;27;20038;-56
2022/09/04 00:04:29;;;;;;;9.25;6.05;;;19.50;80.30;;;;;;5131814;27;20093;-49
2022/09/04 00:07:14;;;;;;;9.80;5.63;;;19.50;80.30;;;;;;5127141;27;20069;-52
2022/09/04 00:10:02;;;;;;;11.15;5.75;;;19.50;80.40;;;;;;5133587;27;20031;-51
2022/09/04 00:12:36;;;;;;;7.22;5.82;;;19.50;80.20;;;;;;5133122;27;20023;-51
2022/09/04 00:15:24;;;;;;;6.70;5.90;;;19.50;80.20;;;;;;5132027;27;20023;-55
2022/09/04 00:17:59;;;;;;;8.18;5.80;;;19.50;80.20;;;;;;5117708;27;20107;-50
2022/09/04 00:20:45;;;;;;;9.32;6.10;;;19.50;80.30;;;;;;5133096;27;20514;-54
2022/09/04 00:23:24;;;;;;;7.40;6.18;;;19.50;80.50;;;;;;5133469;27;20035;-53
2022/09/04 00:26:06;;;;;;;11.73;6.32;;;19.40;80.70;;;;;;5133768;27;20096;-53
2022/09/04 00:28:39;;;;;;;8.10;6.03;;;19.40;80.90;;;;;;5115543;27;20080;-53
2022/09/04 00:31:16;;;;;;;13.30;7.70;;;19.40;80.90;;;;;;5133044;27;20031;-51
2022/09/04 00:34:01;;;;;;;18.83;12.30;;;19.40;80.90;;;;;;5133305;27;20390;-55
2022/09/04 00:36:28;;;;;;;19.98;13.52;;;19.30;81.00;;;;;;5133210;27;20512;-51
2022/09/04 00:38:59;;;;;;;15.68;10.27;;;19.30;81.20;;;;;;5133655;27;20035;-53
2022/09/04 00:41:31;;;;;;;9.10;7.18;;;19.40;81.30;;;;;;5084942;28;20395;-55
2022/09/04 00:44:16;;;;;;;8.90;6.03;;;19.40;81.20;;;;;;5114551;27;20031;-52
2022/09/04 00:47:00;;;;;;;;;;;19.40;81.30;;;;;;5119992;27;20068;-53
2022/09/04 00:49:29;;;;;;;8.00;5.97;;;19.30;81.40;;;;;;5133001;27;19912;-52
2022/09/04 00:52:42;;;;;;;7.80;5.90;;;19.40;81.30;;;;;;5132905;27;20035;-49
2022/09/04 00:55:41;;;;;;;8.82;6.18;;;19.40;81.10;;;;;;5053442;27;20071;-50
2022/09/04 00:58:32;;;;;;;9.50;7.50;;;19.40;81.30;;;;;;5114568;27;20087;-51
2022/09/04 01:00:59;;;;;;;10.57;7.07;;;19.40;81.40;;;;;;5132268;27;20098;-49
2022/09/04 01:03:43;;;;;;;21.08;15.07;;;19.40;81.50;;;;;;5132743;27;20057;-50
2022/09/04 01:06:33;;;;;;;18.10;13.05;;;19.40;81.50;;;;;;5117142;27;20084;-50
2022/09/04 01:09:41;;;;;;;12.45;8.35;;;19.40;81.70;;;;;;5114888;27;20023;-55
2022/09/04 01:12:25;;;;;;;8.40;6.40;;;19.40;81.60;;;;;;5124803;27;20027;-52
2022/09/04 01:15:13;;;;;;;11.20;6.68;;;19.40;81.60;;;;;;5132835;27;20034;-53
2022/09/04 01:18:17;;;;;;;7.50;6.70;;;19.40;81.70;;;;;;5124275;27;20046;-50
2022/09/04 01:21:10;;;;;;;12.80;7.47;;;19.30;81.80;;;;;;5082496;27;20047;-49
2022/09/04 01:23:51;;;;;;;9.20;8.30;;;19.40;81.90;;;;;;5133038;27;20028;-52
2022/09/04 01:26:24;;;;;;;9.23;7.68;;;19.40;82.00;;;;;;5132957;27;20035;-52
2022/09/04 01:28:52;;;;;;;8.02;6.80;;;19.30;82.00;;;;;;5132532;27;20023;-51
2022/09/04 01:31:24;;;;;;;8.00;6.57;;;19.40;81.90;;;;;;5131578;27;20581;-51
2022/09/04 01:34:20;;;;;;;10.82;7.97;;;19.30;82.00;;;;;;5132468;27;20046;-50
2022/09/04 01:37:02;;;;;;;10.35;8.88;;;19.40;81.90;;;;;;5114022;27;20802;-49
2022/09/04 01:39:32;;;;;;;27.80;18.77;;;19.30;81.80;;;;;;5132254;27;20034;-50
2022/09/04 01:42:25;;;;;;;15.38;10.68;;;19.30;82.00;;;;;;5121517;27;20041;-52
2022/09/04 01:44:51;;;;;;;9.45;7.60;;;19.30;82.20;;;;;;5121381;27;20058;-51
2022/09/04 01:47:19;;;;;;;9.60;7.57;;;19.30;82.20;;;;;;5131860;27;20118;-50
2022/09/04 01:50:08;;;;;;;9.60;7.07;;;19.30;82.20;;;;;;5113466;27;20027;-54
2022/09/04 01:52:43;;;;;;;9.50;7.65;;;19.30;82.20;;;;;;5131292;27;20055;-55
2022/09/04 01:55:19;;;;;;;11.57;7.55;;;19.20;82.60;;;;;;5113536;27;20031;-54
2022/09/04 01:57:45;;;;;;;10.57;7.82;;;19.20;82.80;;;;;;5131850;27;20027;-53
2022/09/04 02:00:16;;;;;;;10.23;7.30;;;19.20;82.80;;;;;;5131934;27;20509;-55
2022/09/04 02:02:53;;;;;;;7.72;6.55;;;19.20;82.70;;;;;;5131761;27;20043;-50
2022/09/04 02:05:34;;;;;;;10.85;7.13;;;19.20;82.80;;;;;;5131138;27;20034;-54
2022/09/04 02:08:06;;;;;;;8.20;6.30;;;19.20;82.70;;;;;;5132081;27;20077;-50
2022/09/04 02:10:58;;;;;;;9.10;7.15;;;19.30;82.80;;;;;;5112738;27;20087;-54
2022/09/04 02:13:45;;;;;;;7.90;6.57;;;19.30;82.80;;;;;;5131593;27;20708;-53
2022/09/04 02:16:25;;;;;;;9.68;6.75;;;19.30;82.80;;;;;;5127025;27;20035;-53
2022/09/04 02:19:10;;;;;;;8.27;6.63;;;19.30;82.80;;;;;;5128022;27;20027;-49
2022/09/04 02:21:43;;;;;;;7.55;5.90;;;19.30;82.80;;;;;;5109658;28;20035;-50
2022/09/04 02:24:24;;;;;;;9.30;7.00;;;19.30;82.70;;;;;;5099120;27;20031;-51
2022/09/04 02:27:03;;;;;;;8.15;6.65;;;19.30;82.80;;;;;;5131657;27;20024;-54
2022/09/04 02:29:56;;;;;;;8.20;6.45;;;19.20;83.10;;;;;;5131027;27;20035;-54
2022/09/04 02:32:47;;;;;;;8.98;6.93;;;19.20;83.70;;;;;;5130537;27;20031;-54
2022/09/04 02:35:21;;;;;;;14.63;11.30;;;19.10;83.60;;;;;;5131354;28;20458;-50
2022/09/04 02:38:02;;;;;;;;;;;19.10;83.70;;;;;;5131731;28;20533;-53
2022/09/04 02:40:50;;;;;;;10.13;6.85;;;19.10;83.60;;;;;;5130964;28;19998;-52
2022/09/04 02:43:51;;;;;;;8.25;6.70;;;19.10;83.80;;;;;;5075363;28;20043;-53
2022/09/04 02:46:35;;;;;;;11.43;6.75;;;19.00;84.00;;;;;;5130416;28;20027;-53
2022/09/04 02:49:13;;;;;;;11.57;6.80;;;18.90;84.20;;;;;;5112536;28;20034;-52
2022/09/04 02:52:01;;;;;;;9.65;6.95;;;18.90;84.40;;;;;;5130499;28;20027;-54
2022/09/04 02:54:46;;;;;;;8.40;6.95;;;18.80;84.60;;;;;;5131038;28;20428;-52
2022/09/04 02:57:46;;;;;;;8.30;6.63;;;18.80;84.70;;;;;;5130931;28;20084;-54
2022/09/04 03:00:19;;;;;;;9.40;6.43;;;18.70;84.70;;;;;;5112426;28;20027;-55
2022/09/04 03:03:14;;;;;;;8.27;6.35;;;18.70;85.00;;;;;;5130886;28;20023;-55
2022/09/04 03:05:42;;;;;;;;;;;18.60;85.30;;;;;;5131384;28;20031;-53
2022/09/04 03:08:22;;;;;;;8.43;6.85;;;18.40;85.70;;;;;;5130958;28;19918;-50
2022/09/04 03:10:58;;;;;;;8.02;6.47;;;18.50;85.90;;;;;;5120045;28;20057;-49
2022/09/04 03:13:41;;;;;;;9.43;6.88;;;18.50;85.80;;;;;;5128741;28;20110;-50
2022/09/04 03:16:42;;;;;;;10.65;6.30;;;18.50;86.00;;;;;;5125422;28;20028;-53
2022/09/04 03:19:36;;;;;;;8.05;6.78;;;18.40;86.30;;;;;;5128700;28;20039;-52
2022/09/04 03:22:37;;;;;;;9.30;6.80;;;18.40;86.20;;;;;;5128679;28;20118;-55
2022/09/04 03:25:24;;;;;;;11.63;7.45;;;18.30;86.50;;;;;;5128804;28;20034;-52
2022/09/04 03:27:50;;;;;;;11.00;7.93;;;18.20;86.70;;;;;;5129542;28;20046;-49
2022/09/04 03:30:16;;;;;;;11.13;8.90;;;18.00;87.10;;;;;;5130623;28;20387;-49
2022/09/04 03:33:11;;;;;;;11.02;8.77;;;18.00;87.40;;;;;;5111780;28;20039;-53
2022/09/04 03:35:37;;;;;;;;;;;18.10;87.40;;;;;;5107452;28;20050;-53
2022/09/04 03:38:27;;;;;;;10.82;8.00;;;18.10;87.40;;;;;;5124026;27;19994;-54
2022/09/04 03:41:11;;;;;;;9.13;7.72;;;18.10;87.50;;;;;;5133015;27;20116;-51
2022/09/04 03:43:45;;;;;;;9.00;7.97;;;18.00;87.80;;;;;;5134400;27;20092;-53
2022/09/04 03:46:32;;;;;;;8.20;7.40;;;18.00;88.00;;;;;;5134424;27;20023;-53
2022/09/04 03:49:17;;;;;;;10.32;7.65;;;18.00;88.10;;;;;;5134078;27;20031;-53
2022/09/04 03:51:50;;;;;;;10.52;7.97;;;17.90;88.20;;;;;;5133586;27;20030;-53
2022/09/04 03:54:44;;;;;;;10.17;7.60;;;17.90;88.40;;;;;;5134381;27;20628;-50
2022/09/04 03:57:30;;;;;;;7.60;6.90;;;17.90;88.30;;;;;;5120675;27;20035;-53
2022/09/04 04:00:06;;;;;;;10.07;7.65;;;17.90;88.60;;;;;;5134305;27;20031;-53
2022/09/04 04:02:56;;;;;;;8.65;7.55;;;18.00;88.50;;;;;;5133686;27;20055;-56
2022/09/04 04:05:35;;;;;;;11.02;7.65;;;17.90;88.60;;;;;;5133652;27;20586;-53
2022/09/04 04:08:29;;;;;;;9.60;7.43;;;17.90;88.70;;;;;;5134422;27;20447;-55
2022/09/04 04:11:04;;;;;;;9.90;7.47;;;17.90;88.90;;;;;;5126702;27;20031;-52
2022/09/04 04:14:14;;;;;;;10.00;7.10;;;18.00;88.70;;;;;;5134008;27;20030;-55
2022/09/04 04:17:01;;;;;;;10.27;7.35;;;18.00;88.90;;;;;;5101277;27;20027;-54
2022/09/04 04:19:46;;;;;;;9.02;8.13;;;17.90;89.00;;;;;;5124213;27;20035;-54
2022/09/04 04:22:11;;;;;;;10.13;8.13;;;17.90;89.10;;;;;;5133369;27;20019;-51
2022/09/04 04:24:56;;;;;;;8.65;7.07;;;18.00;89.20;;;;;;5133849;27;20390;-50
2022/09/04 04:27:40;;;;;;;;;;;18.00;89.10;;;;;;5133741;27;20107;-52
2022/09/04 04:30:11;;;;;;;10.63;8.73;;;18.00;89.30;;;;;;5133524;27;19907;-53
2022/09/04 04:32:36;;;;;;;10.80;8.20;;;18.00;89.10;;;;;;5132741;27;20043;-55
2022/09/04 04:35:02;;;;;;;8.88;7.97;;;18.10;89.10;;;;;;5133397;27;20046;-55
2022/09/04 04:37:42;;;;;;;10.98;7.90;;;18.10;89.00;;;;;;5133058;27;20027;-52
2022/09/04 04:40:44;;;;;;;12.07;7.90;;;18.10;89.10;;;;;;5132739;27;20487;-53
2022/09/04 04:43:16;;;;;;;13.07;9.30;;;18.10;89.20;;;;;;5132440;27;20042;-51
2022/09/04 04:46:00;;;;;;;10.55;8.95;;;18.10;89.20;;;;;;5131842;27;20032;-53
2022/09/04 04:49:06;;;;;;;13.13;9.55;;;18.10;89.60;;;;;;5133586;27;20031;-54
2022/09/04 04:51:39;;;;;;;9.50;8.43;;;18.00;89.80;;;;;;5088266;28;20590;-50
2022/09/04 04:54:22;;;;;;;9.80;8.43;;;17.90;90.00;;;;;;5114826;27;20559;-50
2022/09/04 04:57:01;;;;;;;13.10;8.80;;;17.90;90.20;;;;;;5133179;27;20422;-49
2022/09/04 05:00:18;;;;;;;8.85;7.85;;;17.90;90.10;;;;;;5114635;27;20031;-51
2022/09/04 05:03:21;;;;;;;9.63;8.27;;;17.90;90.10;;;;;;5009497;28;20041;-47
2022/09/04 05:05:55;;;;;;;9.93;8.10;;;18.00;90.00;;;;;;5029499;28;20437;-53
2022/09/04 05:08:28;;;;;;;;;;;18.00;90.00;;;;;;5112397;27;20046;-53
2022/09/04 05:11:49;;;;;;;9.68;7.63;;;18.10;90.00;;;;;;5131469;27;19914;-52
2022/09/04 05:14:33;;;;;;;10.30;7.70;;;18.10;89.90;;;;;;5104745;27;20496;-52
2022/09/04 05:17:16;;;;;;;10.15;7.95;;;18.10;89.80;;;;;;5131123;27;20031;-54
2022/09/04 05:20:16;;;;;;;14.55;8.75;;;18.20;89.90;;;;;;5126345;27;20042;-52
2022/09/04 05:23:24;;;;;;;12.13;9.93;;;18.20;89.60;;;;;;5120949;27;20048;-52
2022/09/04 05:26:27;;;;;;;11.45;9.88;;;18.20;89.70;;;;;;5100373;27;20038;-54
2022/09/04 05:29:25;;;;;;;9.45;8.30;;;18.20;89.80;;;;;;5132666;27;20359;-55
2022/09/04 05:32:11;;;;;;;12.80;8.98;;;18.20;89.80;;;;;;5131088;27;20085;-52
2022/09/04 05:34:58;;;;;;;9.07;8.02;;;18.30;89.80;;;;;;5132097;27;20494;-54
2022/09/04 05:37:52;;;;;;;8.40;7.57;;;18.30;89.90;;;;;;5111752;28;20170;-54
2022/09/04 05:40:49;;;;;;;9.40;8.40;;;18.30;90.00;;;;;;5113537;27;20486;-52
2022/09/04 05:43:36;;;;;;;10.20;8.15;;;18.30;90.00;;;;;;5092992;28;20072;-54
2022/09/04 05:46:16;;;;;;;9.85;8.25;;;18.40;89.80;;;;;;5128642;27;20085;-54
2022/09/04 05:48:59;;;;;;;9.88;8.88;;;18.40;89.90;;;;;;5113711;27;20034;-53
2022/09/04 05:52:00;;;;;;;9.45;8.55;;;18.40;89.90;;;;;;5131525;27;20379;-55
2022/09/04 05:55:17;;;;;;;9.32;8.25;;;18.50;89.90;;;;;;5057863;27;20029;-55
2022/09/04 05:58:00;;;;;;;9.38;8.35;;;18.60;89.80;;;;;;5025887;28;20065;-51
2022/09/04 06:00:38;;;;;;;9.15;7.88;;;18.60;89.70;;;;;;5127730;27;20118;-54
2022/09/04 06:03:27;;;;;;;9.25;7.80;;;18.70;89.60;;;;;;5110809;28;20081;-54
2022/09/04 06:05:56;;;;;;;8.52;7.68;;;18.70;89.70;;;;;;5105353;27;20031;-54
2022/09/04 06:08:46;;;;;;;10.95;8.10;;;18.80;89.70;;;;;;5113668;27;20057;-53
2022/09/04 06:11:48;;;;;;;10.50;7.82;;;18.80;89.50;;;;;;5112461;27;20027;-53
2022/09/04 06:14:28;;;;;;;9.75;8.05;;;18.80;89.40;;;;;;5131512;27;20022;-52
2022/09/04 06:17:16;;;;;;;9.85;8.00;;;18.80;89.50;;;;;;5108411;27;20023;-56
2022/09/04 06:20:19;;;;;;;11.32;9.52;;;18.90;89.70;;;;;;5131358;27;20026;-52
2022/09/04 06:22:59;;;;;;;8.50;7.47;;;18.90;89.50;;;;;;5131196;27;20039;-51
2022/09/04 06:25:56;;;;;;;9.18;8.02;;;19.00;89.40;;;;;;5131442;27;20034;-54
2022/09/04 06:29:00;;;;;;;10.82;8.07;;;19.00;89.30;;;;;;5131853;27;20023;-46
2022/09/04 06:31:25;;;;;;;9.25;7.80;;;19.00;89.20;;;;;;5130661;27;20479;-49
2022/09/04 06:34:19;;;;;;;10.13;8.30;;;18.90;89.50;;;;;;5131677;27;20027;-52
2022/09/04 06:37:20;;;;;;;10.80;8.70;;;18.90;89.50;;;;;;5131237;28;20043;-50
2022/09/04 06:39:56;;;;;;;8.88;7.97;;;18.90;89.60;;;;;;5093364;28;20511;-49
2022/09/04 06:42:44;;;;;;;10.15;8.32;;;18.90;89.50;;;;;;5098561;28;20039;-50
2022/09/04 06:45:22;;;;;;;8.70;7.78;;;19.00;89.20;;;;;;5110325;28;20066;-49
2022/09/04 06:47:54;;;;;;;9.27;8.02;;;19.10;89.30;;;;;;5094046;28;20024;-49
2022/09/04 06:50:48;;;;;;;11.65;8.60;;;19.10;89.20;;;;;;5131173;28;20055;-54
2022/09/04 06:53:45;;;;;;;11.00;8.10;;;19.20;89.00;;;;;;5112169;28;20491;-49
2022/09/04 06:56:42;;;;;;;9.88;8.48;;;19.30;88.80;;;;;;5110762;28;20180;-50
2022/09/04 06:59:35;;;;;;;9.75;8.00;;;19.30;89.30;;;;;;5122606;28;20031;-51
2022/09/04 07:02:25;;;;;;;10.38;8.38;;;19.40;88.60;;;;;;5130340;28;20028;-50
2022/09/04 07:05:08;;;;;;;10.93;8.75;;;19.50;88.50;;;;;;5111455;28;20135;-47
2022/09/04 07:08:04;;;;;;;10.63;9.00;;;19.50;88.30;;;;;;5131280;27;20027;-52
2022/09/04 07:11:12;;;;;;;11.50;9.38;;;19.60;88.10;;;;;;5115828;27;20027;-52
2022/09/04 07:14:18;;;;;;;13.68;9.88;;;19.60;88.10;;;;;;5100207;27;20086;-47
2022/09/04 07:17:24;;;;;;;15.52;12.45;;;19.90;87.80;;;;;;5135355;27;20031;-51
2022/09/04 07:19:55;;;;;;;13.30;11.82;;;19.90;87.30;;;;;;5117252;27;20024;-47
2022/09/04 07:22:58;;;;;;;12.23;10.10;;;19.90;87.40;;;;;;5134888;27;20039;-51
2022/09/04 07:25:48;;;;;;;10.35;8.95;;;20.00;87.20;;;;;;5135207;27;20047;-53
2022/09/04 07:28:32;;;;;;;12.63;8.63;;;20.10;87.10;;;;;;5117076;27;20051;-51
2022/09/04 07:31:04;;;;;;;8.52;7.72;;;20.20;87.10;;;;;;5116221;27;20402;-50
2022/09/04 07:33:50;;;;;;;9.25;8.23;;;20.30;86.80;;;;;;5134455;27;20054;-48
2022/09/04 07:36:31;;;;;;;13.63;8.77;;;20.30;86.40;;;;;;5135110;27;20034;-47
2022/09/04 07:39:19;;;;;;;9.13;8.23;;;20.30;86.50;;;;;;5116449;27;20063;-50
2022/09/04 07:42:04;;;;;;;13.25;8.45;;;20.30;86.60;;;;;;5113517;28;20031;-48
2022/09/04 07:44:45;;;;;;;10.85;8.85;;;20.40;86.70;;;;;;5128654;27;20023;-53
2022/09/04 07:47:26;;;;;;;9.20;8.30;;;20.40;86.50;;;;;;5134941;27;20118;-50
2022/09/04 07:50:09;;;;;;;13.48;12.00;;;20.40;86.60;;;;;;5134953;27;20031;-49
2022/09/04 07:52:39;;;;;;;14.55;11.02;;;20.30;86.90;;;;;;5134614;27;20023;-50
2022/09/04 07:55:21;;;;;;;12.85;10.70;;;20.40;86.70;;;;;;5112042;22;20052;-48
2022/09/04 07:57:53;;;;;;;9.82;8.82;;;20.40;86.40;;;;;;5055378;28;20028;-49
2022/09/04 08:00:22;;;;;;;10.20;8.68;;;20.60;86.40;;;;;;5073399;28;20036;-49
2022/09/04 08:03:10;;;;;;;10.38;8.73;;;20.60;86.10;;;;;;5055272;28;20032;-50
2022/09/04 08:06:00;;;;;;;8.90;7.90;;;20.50;86.40;;;;;;5055241;28;20082;-54
2022/09/04 08:08:43;;;;;;;10.18;8.18;;;20.60;86.50;;;;;;5062244;28;20043;-49
2022/09/04 08:11:47;;;;;;;11.82;8.52;;;20.70;86.30;;;;;;5073049;28;20040;-51
2022/09/04 08:14:41;;;;;;;10.40;9.00;;;20.80;85.90;;;;;;5072780;28;20086;-53
2022/09/04 08:17:32;;;;;;;11.25;8.50;;;20.80;85.70;;;;;;5072930;28;20033;-50
2022/09/04 08:20:11;;;;;;;8.85;7.88;;;20.90;85.90;;;;;;5054959;28;20489;-52
2022/09/04 08:23:11;;;;;;;11.13;8.48;;;21.10;85.70;;;;;;5072863;28;20020;-52
2022/09/04 08:26:18;;;;;;;9.50;8.50;;;21.10;85.40;;;;;;5054831;28;20025;-54
2022/09/04 08:29:12;;;;;;;9.48;8.57;;;21.20;85.20;;;;;;5073053;28;20029;-48
2022/09/04 08:31:52;;;;;;;8.52;7.63;;;21.40;84.60;;;;;;5072183;28;20055;-51
2022/09/04 08:34:44;;;;;;;9.50;8.48;;;21.50;84.50;;;;;;5056674;28;20526;-51
2022/09/04 08:37:10;;;;;;;11.40;8.25;;;21.50;84.30;;;;;;5073361;28;20033;-47
2022/09/04 08:39:54;;;;;;;23.77;17.92;;;21.50;84.60;;;;;;5073639;28;20036;-50
2022/09/04 08:42:45;;;;;;;15.10;12.10;;;21.60;84.40;;;;;;5072054;28;20025;-53
2022/09/04 08:45:48;;;;;;;13.02;10.65;;;21.60;84.40;;;;;;5072530;28;20032;-48
2022/09/04 08:48:47;;;;;;;9.85;8.27;;;21.60;84.50;;;;;;4991225;28;20082;-50
2022/09/04 08:51:22;;;;;;;9.10;8.20;;;21.70;84.20;;;;;;5067575;28;20511;-52
2022/09/04 08:53:50;;;;;;;11.02;9.88;;;21.80;84.30;;;;;;5054937;28;20037;-48
2022/09/04 08:56:31;;;;;;;11.55;8.20;;;21.70;83.80;;;;;;5072422;28;20043;-48
2022/09/04 08:59:18;;;;;;;11.68;10.50;;;21.70;84.00;;;;;;5055095;28;20029;-50
2022/09/04 09:02:08;;;;;;;11.25;10.15;;;21.80;84.30;;;;;;5072147;28;20040;-48
2022/09/04 09:05:11;;;;;;;10.45;9.13;;;21.80;84.20;;;;;;5072273;28;20032;-54
2022/09/04 09:07:58;;;;;;;30.67;20.42;;;21.80;84.10;;;;;;5054233;28;20046;-51
2022/09/04 09:10:42;;;;;;;16.05;11.07;;;21.90;84.20;;;;;;5072587;28;20063;-57
2022/09/04 09:13:16;;;;;;;12.48;8.18;;;22.00;83.70;;;;;;5074859;28;20036;-56
2022/09/04 09:15:56;;;;;;;10.75;8.32;;;22.10;83.40;;;;;;5074825;28;20036;-54
2022/09/04 09:18:30;;;;;;;10.38;7.82;;;22.40;83.40;;;;;;5073287;28;20395;-50
2022/09/04 09:21:07;;;;;;;10.33;8.43;;;22.60;83.00;;;;;;5074177;28;20032;-48
2022/09/04 09:23:49;;;;;;;11.20;8.10;;;22.80;82.30;;;;;;5055054;28;20032;-54
2022/09/04 09:26:41;;;;;;;8.98;7.32;;;22.90;81.90;;;;;;5070826;28;20020;-53
2022/09/04 09:29:34;;;;;;;14.10;8.07;;;22.80;82.20;;;;;;5072101;28;20393;-49
2022/09/04 09:32:18;;;;;;;9.57;8.48;;;22.80;82.10;;;;;;5054958;28;20631;-54
2022/09/04 09:35:14;;;;;;;11.07;8.02;;;22.80;82.10;;;;;;5054113;28;20020;-46
2022/09/04 09:38:13;;;;;;;9.65;7.55;;;22.90;82.10;;;;;;5053643;28;20029;-53
2022/09/04 09:41:13;;;;;;;8.23;6.60;;;22.90;82.10;;;;;;5071753;28;20064;-49
2022/09/04 09:43:58;;;;;;;8.80;7.50;;;23.10;81.90;;;;;;5070890;28;20032;-49
2022/09/04 09:46:52;;;;;;;10.20;7.60;;;23.20;81.30;;;;;;5053598;28;20036;-50
2022/09/04 09:49:29;;;;;;;11.07;7.07;;;23.40;81.40;;;;;;5071560;28;20500;-48
2022/09/04 09:52:01;;;;;;;7.72;6.95;;;23.40;81.30;;;;;;5069852;28;20032;-50
2022/09/04 09:54:39;;;;;;;11.63;7.63;;;23.60;80.90;;;;;;5072100;28;20086;-52
2022/09/04 09:57:31;;;;;;;10.70;7.70;;;23.60;80.90;;;;;;5071113;28;20039;-52
2022/09/04 10:00:16;;;;;;;9.20;8.20;;;23.50;81.20;;;;;;5040978;28;20037;-50
2022/09/04 10:03:28;;;;;;;7.68;6.90;;;23.50;81.30;;;;;;5032202;28;20032;-48
2022/09/04 10:06:24;;;;;;;10.15;6.60;;;23.60;81.00;;;;;;5050621;28;20115;-49
2022/09/04 10:09:15;;;;;;;7.70;6.57;;;23.70;80.90;;;;;;5036949;28;20473;-49
2022/09/04 10:11:43;;;;;;;8.15;6.22;;;23.60;80.80;;;;;;5070376;28;20028;-49
2022/09/04 10:14:36;;;;;;;8.70;7.25;;;23.80;80.80;;;;;;5070867;28;20036;-52
2022/09/04 10:17:23;;;;;;;8.25;6.82;;;23.80;80.80;;;;;;5070673;28;20564;-54
2022/09/04 10:20:07;;;;;;;7.25;6.07;;;23.70;80.60;;;;;;5070787;28;20496;-51
2022/09/04 10:22:33;;;;;;;;;;;23.80;80.40;;;;;;5070402;28;20039;-48
2022/09/04 10:25:19;;;;;;;6.55;5.60;;;23.90;79.60;;;;;;5070759;28;19959;-47
2022/09/04 10:28:03;;;;;;;9.65;7.22;;;23.90;79.90;;;;;;5052432;28;20106;-50
2022/09/04 10:30:46;;;;;;;7.28;6.32;;;23.90;79.70;;;;;;5071972;28;20035;-49
2022/09/04 10:33:51;;;;;;;6.90;6.20;;;24.00;79.70;;;;;;5071152;28;20037;-54
2022/09/04 10:36:52;;;;;;;9.43;6.25;;;24.10;79.40;;;;;;5063908;28;20025;-49
2022/09/04 10:42:52;;;;;;;10.40;6.22;;;24.20;78.70;;;;;;5070191;28;20096;-49
2022/09/04 10:45:45;;;;;;;11.38;6.32;;;24.30;78.60;;;;;;5075200;28;20541;-50
2022/09/04 10:48:48;;;;;;;6.43;5.82;;;24.40;78.30;;;;;;5074942;28;20032;-54
2022/09/04 10:51:26;;;;;;;8.00;6.10;;;24.40;77.90;;;;;;5074370;28;20017;-51
2022/09/04 10:54:16;;;;;;;7.88;6.25;;;24.40;78.00;;;;;;5074670;28;20075;-48
2022/09/04 10:56:51;;;;;;;7.88;6.00;;;24.50;77.80;;;;;;5074932;28;20028;-49
2022/09/04 10:59:29;;;;;;;9.93;6.90;;;24.40;77.50;;;;;;5075206;28;20040;-52
2022/09/04 11:02:01;;;;;;;8.00;7.20;;;24.40;77.40;;;;;;5074674;28;20025;-51
2022/09/04 11:04:52;;;;;;;7.20;6.47;;;24.40;77.60;;;;;;5075430;28;20530;-55
2022/09/04 11:07:57;;;;;;;8.32;7.50;;;24.50;77.70;;;;;;5074929;28;20395;-49
2022/09/04 11:11:07;;;;;;;10.25;7.57;;;24.60;77.30;;;;;;5012084;28;20072;-47
2022/09/04 11:13:35;;;;;;;7.80;7.03;;;24.70;77.40;;;;;;5011601;28;20065;-53
2022/09/04 11:16:10;;;;;;;8.30;7.15;;;24.80;77.20;;;;;;5061236;28;20535;-51
2022/09/04 11:19:11;;;;;;;9.63;7.70;;;24.80;76.70;;;;;;5074252;28;20031;-55
2022/09/04 11:22:02;;;;;;;15.05;11.50;;;24.90;76.70;;;;;;5073684;28;20055;-50
2022/09/04 11:24:46;;;;;;;7.30;6.70;;;24.70;76.80;;;;;;5073730;28;20055;-51
2022/09/04 11:27:30;;;;;;;;;;;24.80;76.40;;;;;;5074458;28;20090;-54
2022/09/04 11:30:15;;;;;;;10.90;7.37;;;24.60;76.60;;;;;;5073989;28;19904;-54
2022/09/04 11:33:22;;;;;;;8.57;7.60;;;24.60;76.40;;;;;;5073243;28;20695;-49
2022/09/04 11:36:06;;;;;;;8.68;6.40;;;24.60;76.50;;;;;;5073478;28;20389;-55
2022/09/04 11:38:51;;;;;;;8.38;6.50;;;24.60;76.80;;;;;;5074960;28;20108;-54
2022/09/04 11:41:17;;;;;;;8.00;6.90;;;24.70;76.60;;;;;;5055463;28;20035;-51
2022/09/04 11:43:51;;;;;;;7.20;6.47;;;24.70;76.80;;;;;;5074349;28;20032;-50
2022/09/04 11:46:49;;;;;;;7.43;6.25;;;24.60;76.10;;;;;;5055765;28;20134;-51
2022/09/04 11:49:41;;;;;;;7.47;6.78;;;24.50;76.70;;;;;;5055285;28;20552;-52
2022/09/04 11:52:15;;;;;;;7.35;6.07;;;24.60;77.20;;;;;;5074265;28;20033;-54
2022/09/04 11:54:56;;;;;;;9.27;7.80;;;24.70;77.10;;;;;;5074262;28;20033;-47
2022/09/04 11:57:59;;;;;;;8.50;7.30;;;25.00;76.90;;;;;;5055819;28;20086;-50
2022/09/04 12:00:36;;;;;;;9.85;6.65;;;25.10;76.50;;;;;;5073352;28;20025;-49
2022/09/04 12:03:11;;;;;;;7.47;6.75;;;25.20;76.20;;;;;;5072912;28;20043;-52
2022/09/04 12:06:08;;;;;;;8.13;6.60;;;25.30;75.80;;;;;;5072883;28;20032;-51
2022/09/04 12:08:43;;;;;;;8.55;6.88;;;25.20;75.90;;;;;;5073225;28;20024;-53
2022/09/04 12:11:34;;;;;;;9.30;7.20;;;25.20;75.90;;;;;;5054775;28;20081;-50
2022/09/04 12:14:24;;;;;;;7.45;6.70;;;25.30;75.90;;;;;;5072615;28;20067;-52
2022/09/04 12:17:17;;;;;;;7.72;6.97;;;25.40;75.40;;;;;;5071280;28;20210;-53
2022/09/04 12:19:46;;;;;;;8.00;7.30;;;25.20;75.20;;;;;;5073136;28;20028;-56
2022/09/04 12:22:44;;;;;;;7.70;6.93;;;25.20;76.00;;;;;;5054251;28;20059;-54
2022/09/04 12:25:09;;;;;;;8.07;6.75;;;25.40;75.50;;;;;;5042097;28;20097;-51
2022/09/04 12:28:04;;;;;;;11.90;8.60;;;25.50;75.30;;;;;;5072747;28;20032;-56
2022/09/04 12:30:47;;;;;;;8.02;6.68;;;25.70;74.80;;;;;;5072712;28;20111;-47
2022/09/04 12:33:27;;;;;;;8.77;7.13;;;25.60;74.40;;;;;;5072218;28;20020;-51
2022/09/04 12:36:13;;;;;;;8.07;7.28;;;25.30;74.40;;;;;;5072292;28;20500;-53
2022/09/04 12:38:53;;;;;;;9.98;7.50;;;25.30;75.00;;;;;;5054234;28;20052;-50
2022/09/04 12:41:28;;;;;;;8.90;6.88;;;25.40;75.00;;;;;;5071757;28;20035;-52
2022/09/04 12:44:27;;;;;;;7.45;6.75;;;25.60;74.30;;;;;;5071019;28;20507;-48
2022/09/04 12:47:20;;;;;;;7.32;6.53;;;25.90;74.00;;;;;;5066474;28;20024;-50
2022/09/04 12:50:17;;;;;;;7.72;6.32;;;26.10;73.60;;;;;;5068633;28;20105;-54
2022/09/04 12:52:58;;;;;;;9.43;7.95;;;26.10;73.30;;;;;;5069615;28;20021;-50
2022/09/04 12:55:49;;;;;;;12.02;9.05;;;26.10;72.70;;;;;;5069303;28;20117;-53
2022/09/04 12:58:46;;;;;;;8.95;7.47;;;26.20;72.70;;;;;;5071171;28;20016;-52
2022/09/04 13:01:38;;;;;;;9.38;7.65;;;26.50;72.40;;;;;;5077538;28;20029;-52
2022/09/04 13:04:28;;;;;;;7.50;6.32;;;26.80;72.60;;;;;;5070211;28;20033;-53
2022/09/04 13:07:32;;;;;;;7.20;6.38;;;27.00;72.10;;;;;;5070410;28;20054;-51
2022/09/04 13:10:22;;;;;;;7.40;6.68;;;27.00;71.10;;;;;;5066839;28;20120;-55
2022/09/04 13:13:09;;;;;;;6.82;6.13;;;27.10;71.50;;;;;;5069854;28;20067;-56
2022/09/04 13:15:46;;;;;;;7.18;6.40;;;27.30;71.30;;;;;;5071824;28;20070;-54
2022/09/04 13:19:16;;;;;;;6.10;5.50;;;27.50;70.50;;;;;;5071073;28;20667;-52
2022/09/04 13:22:26;;;;;;;6.80;6.07;;;27.60;70.30;;;;;;5037920;28;20040;-50
2022/09/04 13:25:27;;;;;;;8.98;6.55;;;27.70;69.40;;;;;;5049209;28;20701;-52
2022/09/04 13:28:27;;;;;;;6.68;6.07;;;27.90;69.60;;;;;;5032569;28;20040;-54
2022/09/04 13:31:17;;;;;;;6.55;5.82;;;28.20;68.80;;;;;;5074195;28;20028;-52
2022/09/04 13:34:24;;;;;;;7.32;5.78;;;28.00;68.50;;;;;;5081369;28;20131;-54
2022/09/04 13:37:28;;;;;;;9.02;5.60;;;28.00;68.30;;;;;;5071595;28;20024;-55
2022/09/04 13:40:15;;;;;;;7.53;6.53;;;28.10;68.10;;;;;;5070372;28;20151;-54
2022/09/04 13:43:00;;;;;;;7.20;5.80;;;28.10;68.50;;;;;;5070834;28;20107;-50
2022/09/04 13:45:47;;;;;;;6.50;5.80;;;28.30;68.10;;;;;;5070911;28;20032;-53
2022/09/04 13:48:39;;;;;;;6.63;6.00;;;28.40;67.20;;;;;;5054595;28;20036;-51
2022/09/04 13:51:28;;;;;;;8.20;6.13;;;28.30;67.10;;;;;;5059876;28;20055;-53
2022/09/04 13:54:10;;;;;;;9.55;5.88;;;28.20;67.60;;;;;;5070756;28;20052;-53
2022/09/04 13:57:05;;;;;;;6.80;5.70;;;28.00;67.50;;;;;;5070810;28;20048;-51
2022/09/04 13:59:31;;;;;;;7.03;5.53;;;28.00;67.70;;;;;;5060153;28;20500;-52
2022/09/04 14:02:03;;;;;;;6.95;6.25;;;28.20;67.40;;;;;;5070377;28;20304;-52
2022/09/04 14:04:43;;;;;;;6.13;5.43;;;28.30;67.30;;;;;;5070650;28;20361;-54
2022/09/04 14:07:17;;;;;;;6.07;5.47;;;28.50;66.60;;;;;;5071099;28;20039;-53
2022/09/04 14:09:46;;;;;;;6.78;5.65;;;28.60;66.90;;;;;;5070698;28;20427;-51
2022/09/04 14:12:17;;;;;;;5.88;5.28;;;28.70;66.60;;;;;;5035453;28;20037;-51
2022/09/04 14:15:09;;;;;;;6.88;5.70;;;28.80;66.50;;;;;;5070522;28;20029;-54
2022/09/04 14:17:48;;;;;;;7.40;5.50;;;28.80;66.20;;;;;;5052279;28;20105;-55
2022/09/04 14:20:18;;;;;;;5.93;5.35;;;28.80;66.30;;;;;;5070678;28;20033;-50
2022/09/04 14:23:01;;;;;;;6.45;5.85;;;28.90;66.10;;;;;;5070150;28;20036;-53
2022/09/04 14:25:49;;;;;;;6.30;5.65;;;28.80;65.70;;;;;;5070735;28;20520;-51